Time;durP1;ratioP1;P1;durP2;ratioP2;P2;SDS_P1;SDS_P2;PMS_P1;PMS_P2;Temp;Humidity;BMP_temperature;BMP_pressure;BME280_temperature;BME280_humidity;BME280_pressure;Samples;Min_cycle;Max_cycle;Signal;HPM_P1;HPM_P2
2022/10/25 00:03:17;;;;;;;0.00;0.00;;;;;;;15.80;62.75;97963.81;8288307;28;20245;-77
2022/10/25 00:07:20;;;;;;;0.00;0.00;;;;;;;15.76;63.02;97968.44;8288348;28;20576;-77
2022/10/25 00:11:24;;;;;;;0.00;0.00;;;;;;;15.70;63.13;97966.16;8288286;28;20229;-77
2022/10/25 00:15:28;;;;;;;0.00;0.00;;;;;;;15.65;62.92;97970.88;8288048;28;20372;-77
2022/10/25 00:19:31;;;;;;;0.00;0.00;;;;;;;15.71;62.29;97973.06;8287913;28;20225;-77
2022/10/25 00:23:34;;;;;;;0.00;0.00;;;;;;;15.71;62.32;97967.03;8288033;28;20233;-77
2022/10/25 00:27:37;;;;;;;0.03;0.03;;;;;;;15.71;61.97;97965.25;8287584;28;20233;-77
2022/10/25 00:31:42;;;;;;;0.00;0.00;;;;;;;15.72;62.53;97966.06;8287394;28;20536;-77
2022/10/25 00:35:44;;;;;;;0.00;0.00;;;;;;;15.70;62.18;97970.56;8287509;28;20256;-77
2022/10/25 00:39:47;;;;;;;0.00;0.00;;;;;;;15.64;62.52;97977.00;8287414;28;20246;-77
2022/10/25 00:43:52;;;;;;;0.00;0.00;;;;;;;15.67;62.25;97974.22;8287452;28;20260;-77
2022/10/25 00:47:59;;;;;;;0.00;0.00;;;;;;;15.67;62.46;97968.13;8278135;28;20233;-76
2022/10/25 00:52:03;;;;;;;0.00;0.00;;;;;;;15.66;62.21;97976.91;8286875;28;20248;-77
2022/10/25 00:56:12;;;;;;;0.00;0.00;;;;;;;15.67;62.08;97982.03;8286894;28;20238;-77
2022/10/25 01:00:15;;;;;;;0.00;0.00;;;;;;;15.61;62.52;97985.88;8285400;28;20460;-77
2022/10/25 01:04:20;;;;;;;0.00;0.00;;;;;;;15.64;62.66;97995.28;8286466;28;20237;-78
2022/10/25 01:08:23;;;;;;;0.00;0.00;;;;;;;15.61;61.87;97998.06;8286690;28;20414;-77
2022/10/25 01:12:26;;;;;;;0.00;0.00;;;;;;;15.52;62.21;97996.09;8286607;28;20229;-77
2022/10/25 01:16:34;;;;;;;0.00;0.00;;;;;;;15.48;62.72;98000.66;8286453;28;20407;-77
2022/10/25 01:21:04;;;;;;;0.00;0.00;;;;;;;15.49;62.32;97994.50;8286448;28;20264;-77
2022/10/25 01:25:20;;;;;;;0.00;0.00;;;;;;;15.50;62.53;97992.72;8277765;28;20520;-77
2022/10/25 01:29:39;;;;;;;0.00;0.00;;;;;;;15.53;62.23;97998.56;8285972;28;20333;-77
2022/10/25 01:33:47;;;;;;;0.00;0.00;;;;;;;15.44;62.33;98000.00;8285863;28;20430;-77
2022/10/25 01:37:58;;;;;;;0.00;0.00;;;;;;;15.33;62.66;97993.81;8285966;28;20233;-77
2022/10/25 01:42:05;;;;;;;0.00;0.00;;;;;;;15.36;62.61;97991.00;8285159;28;20567;-77
2022/10/25 01:46:13;;;;;;;0.00;0.00;;;;;;;15.39;62.69;97996.03;8285425;28;20288;-78
2022/10/25 01:50:22;;;;;;;0.00;0.00;;;;;;;15.42;62.31;98006.25;8285327;28;20234;-78
2022/10/25 01:54:26;;;;;;;0.00;0.00;;;;;;;15.34;62.49;98004.13;8285137;28;20237;-77
2022/10/25 01:58:38;;;;;;;0.00;0.00;;;;;;;15.34;62.45;98001.50;8284986;28;20241;-78
2022/10/25 02:03:01;;;;;;;0.00;0.00;;;;;;;15.35;62.24;98002.38;8284747;28;20534;-78
2022/10/25 02:07:08;;;;;;;0.00;0.00;;;;;;;15.33;62.57;98006.84;8284494;28;20233;-77
2022/10/25 02:11:17;;;;;;;0.00;0.00;;;;;;;15.31;62.29;98004.34;8284061;28;20241;-77
2022/10/25 02:15:24;;;;;;;0.00;0.00;;;;;;;15.29;62.31;98006.22;8284485;28;20229;-77
2022/10/25 02:19:32;;;;;;;0.00;0.00;;;;;;;15.25;62.50;97999.50;8284413;28;20229;-77
2022/10/25 02:23:37;;;;;;;0.00;0.00;;;;;;;15.19;62.34;97995.50;8284263;28;20237;-77
2022/10/25 02:27:40;;;;;;;0.00;0.00;;;;;;;15.20;62.75;97994.56;8284090;28;20237;-77
2022/10/25 02:31:43;;;;;;;0.00;0.00;;;;;;;15.13;62.47;97988.06;8284049;28;20387;-77
2022/10/25 02:36:04;;;;;;;0.00;0.00;;;;;;;15.15;62.28;97988.78;8283969;28;20295;-77
2022/10/25 02:40:10;;;;;;;0.00;0.00;;;;;;;15.16;62.44;97998.31;8283357;28;20236;-77
2022/10/25 02:44:13;;;;;;;0.00;0.00;;;;;;;15.17;62.11;97992.16;8283450;28;20237;-77
2022/10/25 02:48:16;;;;;;;0.00;0.00;;;;;;;15.17;62.48;98004.34;8283140;28;20234;-76
2022/10/25 02:52:19;;;;;;;0.00;0.00;;;;;;;15.07;62.68;98004.09;8283242;28;20261;-77
2022/10/25 02:56:23;;;;;;;0.00;0.00;;;;;;;15.14;62.73;98007.16;8283197;28;20432;-77
2022/10/25 03:00:28;;;;;;;0.00;0.00;;;;;;;15.05;62.93;98008.56;8282987;28;20241;-77
2022/10/25 03:04:31;;;;;;;0.00;0.00;;;;;;;15.10;62.45;98010.88;8282714;28;20230;-77
2022/10/25 03:08:33;;;;;;;0.00;0.00;;;;;;;15.04;62.54;98012.09;8282879;28;20454;-77
2022/10/25 03:12:37;;;;;;;0.00;0.00;;;;;;;15.03;62.83;97997.41;8282597;28;20248;-77
2022/10/25 03:16:40;;;;;;;0.00;0.00;;;;;;;14.97;63.14;98009.03;8282472;28;20265;-77
2022/10/25 03:20:44;;;;;;;0.00;0.00;;;;;;;15.05;63.08;98012.00;8281666;28;20246;-77
2022/10/25 03:24:46;;;;;;;0.10;0.10;;;;;;;15.04;62.60;98015.56;8282350;28;20245;-77
2022/10/25 03:28:51;;;;;;;0.00;0.00;;;;;;;15.03;62.86;98008.66;8282284;28;20244;-77
2022/10/25 03:32:55;;;;;;;0.00;0.00;;;;;;;14.99;62.78;98009.78;8281758;28;20233;-77
2022/10/25 03:36:58;;;;;;;0.00;0.00;;;;;;;15.02;63.02;98022.66;8282033;28;20237;-77
2022/10/25 03:41:01;;;;;;;0.00;0.00;;;;;;;15.07;62.40;98027.56;8282202;28;20237;-76
2022/10/25 03:45:06;;;;;;;0.10;0.10;;;;;;;15.08;62.53;98028.38;8282094;28;20241;-77
2022/10/25 03:49:09;;;;;;;0.00;0.00;;;;;;;14.98;62.97;98028.13;8281843;28;20506;-77
2022/10/25 03:53:12;;;;;;;0.00;0.00;;;;;;;14.98;63.00;98030.72;8281847;28;20233;-77
2022/10/25 03:57:15;;;;;;;0.00;0.00;;;;;;;14.97;62.88;98029.06;8281935;28;20237;-77
2022/10/25 04:01:19;;;;;;;0.00;0.00;;;;;;;14.98;62.51;98042.03;8281822;28;20428;-78
2022/10/25 04:05:22;;;;;;;0.00;0.00;;;;;;;15.00;62.67;98036.69;8281525;28;20229;-77
2022/10/25 04:09:25;;;;;;;0.00;0.00;;;;;;;14.91;62.90;98035.50;8281548;28;20225;-77
2022/10/25 04:13:28;;;;;;;0.00;0.00;;;;;;;14.92;62.81;98038.94;8281587;28;20591;-77
2022/10/25 04:17:32;;;;;;;0.00;0.00;;;;;;;14.78;63.62;98039.78;8281533;28;20240;-77
2022/10/25 04:21:34;;;;;;;0.00;0.00;;;;;;;14.87;63.32;98041.84;8281488;28;20271;-78
2022/10/25 04:25:37;;;;;;;0.00;0.00;;;;;;;14.94;62.86;98034.47;8281483;28;20469;-77
2022/10/25 04:29:40;;;;;;;0.00;0.00;;;;;;;14.95;62.60;98046.59;8281015;28;20517;-77
2022/10/25 04:33:48;;;;;;;0.00;0.00;;;;;;;14.88;62.74;98043.50;8284330;28;20513;-77
2022/10/25 04:37:51;;;;;;;0.00;0.00;;;;;;;14.75;63.12;98040.78;8286498;28;20327;-77
2022/10/25 04:41:54;;;;;;;0.00;0.00;;;;;;;14.81;63.11;98044.78;8278244;28;20229;-76
2022/10/25 04:45:59;;;;;;;0.00;0.00;;;;;;;14.88;63.00;98048.72;8286060;28;20237;-76
2022/10/25 04:50:04;;;;;;;0.00;0.00;;;;;;;14.93;62.96;98051.88;8286081;28;20233;-76
2022/10/25 04:54:07;;;;;;;0.00;0.00;;;;;;;14.89;62.89;98049.53;8285625;28;20245;-77
2022/10/25 04:58:10;;;;;;;0.00;0.00;;;;;;;14.91;63.11;98053.75;8285832;28;20432;-77
2022/10/25 05:02:13;;;;;;;0.00;0.00;;;;;;;14.65;63.14;98056.13;8285753;28;20241;-77
2022/10/25 05:06:18;;;;;;;0.00;0.00;;;;;;;14.78;63.03;98056.25;8285546;28;20233;-75
2022/10/25 05:10:21;;;;;;;0.00;0.00;;;;;;;14.80;63.37;98058.78;8285554;28;20234;-75
2022/10/25 05:14:23;;;;;;;0.00;0.00;;;;;;;14.88;63.05;98064.34;8285449;28;20237;-76
2022/10/25 05:18:26;;;;;;;0.00;0.00;;;;;;;14.84;63.40;98061.09;8285321;28;20316;-79
2022/10/25 05:22:31;;;;;;;0.00;0.00;;;;;;;14.91;63.07;98068.53;8285252;28;20257;-79
2022/10/25 05:26:34;;;;;;;0.00;0.00;;;;;;;14.81;63.74;98066.50;8285582;28;20585;-76
2022/10/25 05:30:40;;;;;;;0.00;0.00;;;;;;;14.85;63.97;98080.19;8285001;28;20242;-74
2022/10/25 05:34:42;;;;;;;0.00;0.00;;;;;;;14.87;63.51;98083.56;8284559;28;20435;-74
2022/10/25 05:38:47;;;;;;;0.00;0.00;;;;;;;14.99;63.32;98080.19;8284121;28;20244;-75
2022/10/25 05:42:50;;;;;;;0.00;0.00;;;;;;;14.96;63.27;98085.56;8284002;28;20292;-76
2022/10/25 05:46:54;;;;;;;0.00;0.00;;;;;;;14.98;63.64;98086.34;8282631;28;20238;-74
2022/10/25 05:51:07;;;;;;;0.00;0.00;;;;;;;14.97;63.20;98087.28;8283255;28;20240;-75
2022/10/25 05:55:32;;;;;;;0.00;0.00;;;;;;;14.95;64.10;98085.69;8282824;28;20416;-75
2022/10/25 05:59:35;;;;;;;0.00;0.00;;;;;;;14.97;63.97;98092.47;8283632;28;20234;-75
2022/10/25 06:03:38;;;;;;;0.00;0.00;;;;;;;14.94;64.78;98105.69;8283380;28;20292;-75
2022/10/25 06:07:40;;;;;;;0.00;0.00;;;;;;;14.96;65.00;98106.44;8283743;28;20234;-75
2022/10/25 06:11:45;;;;;;;0.00;0.00;;;;;;;15.05;64.83;98115.50;8283799;28;20463;-75
2022/10/25 06:15:48;;;;;;;0.00;0.00;;;;;;;15.09;64.86;98118.75;8283468;28;20583;-75
2022/10/25 06:19:50;;;;;;;0.00;0.00;;;;;;;15.04;65.45;98116.41;8283285;28;20533;-75
2022/10/25 06:23:53;;;;;;;0.00;0.00;;;;;;;15.13;64.97;98125.47;8282584;28;20233;-75
2022/10/25 06:27:57;;;;;;;0.00;0.00;;;;;;;15.05;65.83;98129.38;8283092;28;20248;-74
2022/10/25 06:32:00;;;;;;;0.00;0.00;;;;;;;15.14;66.10;98137.59;8282845;28;20261;-75
2022/10/25 06:36:04;;;;;;;0.03;0.03;;;;;;;15.21;65.42;98131.91;8282632;28;20305;-75
2022/10/25 06:40:08;;;;;;;0.00;0.00;;;;;;;15.24;65.48;98139.53;8282455;28;20252;-75
2022/10/25 06:44:13;;;;;;;0.00;0.00;;;;;;;15.19;65.45;98146.81;8282609;28;20244;-75
2022/10/25 06:48:15;;;;;;;0.00;0.00;;;;;;;15.22;65.40;98151.00;8282496;28;20492;-75
2022/10/25 06:52:18;;;;;;;0.00;0.00;;;;;;;15.14;65.63;98155.84;8282215;28;20229;-75
2022/10/25 06:56:21;;;;;;;0.00;0.00;;;;;;;15.32;65.72;98154.72;8281979;28;20252;-75
2022/10/25 07:00:25;;;;;;;0.00;0.00;;;;;;;15.42;65.53;98160.22;8281944;28;20275;-75
2022/10/25 07:04:31;;;;;;;0.00;0.00;;;;;;;15.51;65.29;98157.03;8281634;28;20555;-74
2022/10/25 07:08:34;;;;;;;0.00;0.00;;;;;;;15.62;65.09;98169.44;8281818;28;20457;-75
2022/10/25 07:12:36;;;;;;;0.00;0.00;;;;;;;15.61;64.82;98172.97;8281793;28;20248;-76
2022/10/25 07:16:41;;;;;;;0.00;0.00;;;;;;;15.69;64.54;98175.09;8281738;28;20532;-75
2022/10/25 07:20:47;;;;;;;0.00;0.00;;;;;;;15.68;64.87;98176.88;8281308;28;20240;-75
2022/10/25 07:24:50;;;;;;;0.00;0.00;;;;;;;15.76;64.70;98174.69;8281366;28;20240;-75
2022/10/25 07:28:55;;;;;;;0.00;0.00;;;;;;;15.80;64.21;98184.00;8280706;28;20305;-74
2022/10/25 07:33:01;;;;;;;0.00;0.00;;;;;;;16.08;63.53;98184.03;8281242;28;20525;-75
2022/10/25 07:37:05;;;;;;;0.00;0.00;;;;;;;16.65;62.13;98177.78;8281176;28;20240;-76
2022/10/25 07:41:09;;;;;;;0.00;0.00;;;;;;;16.89;60.70;98178.78;8281256;28;20532;-76
2022/10/25 07:45:12;;;;;;;0.00;0.00;;;;;;;16.65;62.04;98190.84;8281184;28;20250;-76
2022/10/25 07:49:21;;;;;;;0.00;0.00;;;;;;;17.75;58.81;98188.63;8281281;28;20555;-79
2022/10/25 07:53:24;;;;;;;0.00;0.00;;;;;;;18.11;57.78;98194.84;8280896;28;20233;-76
2022/10/25 07:57:27;;;;;;;0.00;0.00;;;;;;;18.38;57.18;98190.34;8281047;28;20225;-76
2022/10/25 08:01:30;;;;;;;0.10;0.10;;;;;;;19.09;62.87;98197.28;8281173;28;20231;-79
2022/10/25 08:05:34;;;;;;;0.00;0.00;;;;;;;19.17;59.48;98193.25;8280463;28;20227;-78
2022/10/25 08:09:37;;;;;;;0.00;0.00;;;;;;;19.38;56.60;98194.28;8286511;28;20235;-78
2022/10/25 08:13:40;;;;;;;0.00;0.00;;;;;;;19.62;54.48;98194.13;8287631;28;20239;-78
2022/10/25 08:17:43;;;;;;;0.00;0.00;;;;;;;20.05;54.72;98195.22;8287554;28;20256;-77
2022/10/25 08:21:48;;;;;;;0.00;0.00;;;;;;;20.47;52.58;98204.09;8287397;28;20232;-75
2022/10/25 08:25:51;;;;;;;0.00;0.00;;;;;;;20.12;53.29;98199.03;8286982;28;20241;-75
2022/10/25 08:29:54;;;;;;;0.00;0.00;;;;;;;21.43;50.88;98190.91;8278778;28;20297;-74
2022/10/25 08:33:56;;;;;;;0.00;0.00;;;;;;;21.85;48.83;98196.94;8286834;28;20245;-75
2022/10/25 08:38:01;;;;;;;0.00;0.00;;;;;;;22.20;47.58;98197.44;8286558;28;20232;-74
2022/10/25 08:42:04;;;;;;;0.00;0.00;;;;;;;22.09;48.11;98203.69;8286041;28;20233;-74
2022/10/25 08:46:12;;;;;;;0.00;0.00;;;;;;;21.93;48.78;98204.19;8286227;28;20277;-74
2022/10/25 08:50:19;;;;;;;0.00;0.00;;;;;;;21.91;48.05;98205.28;8286099;28;20241;-73
2022/10/25 08:54:27;;;;;;;0.00;0.00;;;;;;;21.66;49.24;98199.50;8285984;28;20233;-74
2022/10/25 08:58:32;;;;;;;0.00;0.00;;;;;;;20.76;50.54;98206.16;8286023;28;20234;-74
2022/10/25 09:02:39;;;;;;;0.00;0.00;;;;;;;21.36;49.93;98200.31;8285927;28;20238;-74
2022/10/25 09:06:50;;;;;;;0.00;0.00;;;;;;;21.46;49.99;98214.41;8286465;28;20237;-74
2022/10/25 09:11:01;;;;;;;0.00;0.00;;;;;;;21.59;48.64;98207.13;8286269;28;20416;-74
2022/10/25 09:15:09;;;;;;;0.00;0.00;;;;;;;21.00;48.64;98216.47;8286235;28;20241;-75
2022/10/25 09:19:17;;;;;;;0.00;0.00;;;;;;;21.37;48.37;98215.97;8284594;28;20249;-76
2022/10/25 09:23:26;;;;;;;0.00;0.00;;;;;;;22.06;47.54;98202.13;8286881;28;20339;-76
2022/10/25 09:27:35;;;;;;;0.00;0.00;;;;;;;22.20;47.12;98206.22;8285090;28;20237;-75
2022/10/25 09:31:41;;;;;;;0.00;0.00;;;;;;;23.05;45.23;98208.41;8285004;28;20256;-76
2022/10/25 09:35:45;;;;;;;0.00;0.00;;;;;;;23.26;44.11;98211.69;8284698;28;20237;-74
2022/10/25 09:39:52;;;;;;;0.00;0.00;;;;;;;23.39;43.70;98216.66;8284958;28;20304;-75
2022/10/25 09:43:58;;;;;;;0.00;0.00;;;;;;;23.39;42.74;98203.44;8276387;28;20231;-74
2022/10/25 09:48:05;;;;;;;0.00;0.00;;;;;;;22.68;43.68;98215.19;8284592;28;20252;-74
2022/10/25 09:52:15;;;;;;;0.00;0.00;;;;;;;21.61;46.58;98225.41;8284573;28;20234;-75
2022/10/25 09:56:17;;;;;;;0.00;0.00;;;;;;;21.86;46.37;98224.16;8284919;28;20540;-75
2022/10/25 10:00:21;;;;;;;0.00;0.00;;;;;;;21.49;47.08;98224.66;8284623;28;20233;-73
2022/10/25 10:04:27;;;;;;;0.00;0.00;;;;;;;21.55;47.15;98232.06;8284344;28;20238;-71
2022/10/25 10:08:33;;;;;;;0.00;0.00;;;;;;;21.63;47.43;98228.78;8284365;28;20420;-74
2022/10/25 10:12:40;;;;;;;0.00;0.00;;;;;;;21.28;48.24;98235.19;8284168;28;20234;-74
2022/10/25 10:16:47;;;;;;;0.00;0.00;;;;;;;22.03;46.98;98239.34;8283722;28;20418;-75
2022/10/25 10:20:59;;;;;;;0.00;0.00;;;;;;;21.58;47.92;98233.59;8283851;28;20236;-75
2022/10/25 10:25:03;;;;;;;0.00;0.00;;;;;;;21.50;48.70;98238.69;8283606;28;20233;-75
2022/10/25 10:29:10;;;;;;;0.00;0.00;;;;;;;21.42;48.75;98226.97;8283449;28;20297;-74
2022/10/25 10:33:20;;;;;;;0.00;0.00;;;;;;;21.05;48.59;98226.59;8283773;28;20255;-75
2022/10/25 10:37:24;;;;;;;0.00;0.00;;;;;;;20.73;50.33;98227.44;8283458;28;20253;-75
2022/10/25 10:41:28;;;;;;;0.00;0.00;;;;;;;20.28;50.79;98227.56;8283451;28;20268;-75
2022/10/25 10:45:32;;;;;;;0.00;0.00;;;;;;;20.25;50.67;98228.63;8283427;28;20233;-75
2022/10/25 10:49:40;;;;;;;0.00;0.00;;;;;;;20.53;51.38;98223.78;8283459;28;20292;-75
2022/10/25 10:53:43;;;;;;;0.00;0.00;;;;;;;20.44;52.82;98221.91;8283334;28;20237;-76
2022/10/25 10:57:46;;;;;;;0.00;0.00;;;;;;;20.47;50.85;98230.38;8283006;28;20237;-75
2022/10/25 11:01:49;;;;;;;0.00;0.00;;;;;;;20.17;51.89;98225.78;8282822;28;20233;-75
2022/10/25 11:05:54;;;;;;;0.00;0.00;;;;;;;19.90;52.00;98223.56;8282358;28;20248;-74
2022/10/25 11:10:20;;;;;;;0.00;0.00;;;;;;;19.70;52.52;98228.56;8282982;28;20262;-77
2022/10/25 11:14:23;;;;;;;0.00;0.00;;;;;;;20.09;51.15;98220.31;8282668;28;20242;-76
2022/10/25 11:18:35;;;;;;;0.00;0.00;;;;;;;19.86;52.06;98222.97;8282670;28;20236;-75
2022/10/25 11:22:45;;;;;;;0.00;0.00;;;;;;;20.00;51.85;98213.97;8282520;28;20417;-75
2022/10/25 11:26:57;;;;;;;0.00;0.00;;;;;;;20.80;51.00;98212.81;8282032;28;20560;-74
2022/10/25 11:31:07;;;;;;;0.00;0.00;;;;;;;19.91;50.71;98212.94;8281953;28;20234;-75
2022/10/25 11:35:19;;;;;;;0.00;0.00;;;;;;;19.84;51.35;98213.53;8282252;28;20257;-76
2022/10/25 11:39:37;;;;;;;0.00;0.00;;;;;;;19.73;51.76;98212.56;8282303;28;20567;-74
2022/10/25 11:43:50;;;;;;;0.00;0.00;;;;;;;19.64;51.46;98222.94;8281641;28;20440;-76
2022/10/25 11:48:05;;;;;;;0.00;0.00;;;;;;;19.38;49.40;98214.41;8281073;28;20432;-75
2022/10/25 11:52:25;;;;;;;0.00;0.00;;;;;;;19.42;49.64;98203.56;8281959;28;20430;-75
2022/10/25 11:56:33;;;;;;;0.00;0.00;;;;;;;19.50;49.83;98195.09;8282156;28;20233;-79
2022/10/25 12:00:44;;;;;;;0.00;0.00;;;;;;;19.47;52.58;98201.41;8281888;28;20547;-75
2022/10/25 12:04:54;;;;;;;0.00;0.00;;;;;;;19.84;54.03;98200.41;8282317;28;20237;-70
2022/10/25 12:09:04;;;;;;;0.00;0.00;;;;;;;20.17;52.25;98212.63;8281929;28;20532;-79
2022/10/25 12:13:13;;;;;;;0.00;0.00;;;;;;;19.75;50.47;98201.13;8282146;28;20299;-80
2022/10/25 12:17:22;;;;;;;0.00;0.00;;;;;;;20.22;48.00;98202.59;8282237;28;20285;-73
2022/10/25 12:21:27;;;;;;;0.00;0.00;;;;;;;20.22;45.67;98205.22;8281658;28;20245;-75
2022/10/25 12:25:31;;;;;;;0.00;0.00;;;;;;;20.75;45.12;98207.09;8282666;28;20244;-77
2022/10/25 12:29:39;;;;;;;0.00;0.00;;;;;;;20.94;45.03;98213.47;8281749;28;20237;-75
2022/10/25 12:33:46;;;;;;;0.00;0.00;;;;;;;20.84;45.12;98210.78;8281695;28;20296;-76
2022/10/25 12:37:52;;;;;;;0.00;0.00;;;;;;;20.79;44.70;98205.91;8281694;28;20237;-75
2022/10/25 12:42:02;;;;;;;0.00;0.00;;;;;;;21.08;43.11;98207.91;8281237;28;20242;-75
2022/10/25 12:46:50;;;;;;;0.00;0.00;;;;;;;21.70;44.51;98200.09;8281224;28;20284;-75
2022/10/25 12:51:14;;;;;;;0.00;0.00;;;;;;;21.29;42.53;98208.72;8263159;28;20233;-75
2022/10/25 12:55:32;;;;;;;0.00;0.00;;;;;;;21.36;42.18;98195.91;8285668;28;20233;-75
2022/10/25 12:59:44;;;;;;;0.00;0.00;;;;;;;21.03;42.32;98210.09;8286965;28;20428;-75
2022/10/25 13:04:20;;;;;;;0.00;0.00;;;;;;;20.61;43.60;98200.34;8286486;28;20237;-76
2022/10/25 13:08:28;;;;;;;0.00;0.00;;;;;;;20.48;44.97;98199.66;8282863;28;20229;-76
2022/10/25 13:12:32;;;;;;;0.00;0.00;;;;;;;20.47;45.25;98206.72;8286253;28;20563;-75
2022/10/25 13:16:34;;;;;;;0.00;0.00;;;;;;;20.83;44.52;98203.88;8286017;28;20463;-77
2022/10/25 13:20:50;;;;;;;0.00;0.00;;;;;;;20.96;44.82;98201.03;8286105;28;20337;-75
2022/10/25 13:24:54;;;;;;;0.00;0.00;;;;;;;20.77;44.60;98199.09;8285513;28;20236;-76
2022/10/25 13:28:59;;;;;;;0.00;0.00;;;;;;;21.28;44.27;98199.19;8285915;28;20544;-76
2022/10/25 13:33:27;;;;;;;0.00;0.00;;;;;;;21.11;43.68;98194.47;8285386;28;20303;-76
2022/10/25 13:37:41;;;;;;;0.00;0.00;;;;;;;21.62;43.48;98191.03;8285573;28;20448;-76
2022/10/25 13:41:46;;;;;;;0.00;0.00;;;;;;;21.93;43.49;98192.81;8285560;28;20235;-76
2022/10/25 13:45:54;;;;;;;0.00;0.00;;;;;;;22.31;43.51;98186.81;8285478;28;20241;-76
2022/10/25 13:49:57;;;;;;;0.00;0.00;;;;;;;22.28;43.56;98181.81;8277177;28;20237;-74
2022/10/25 13:54:04;;;;;;;0.00;0.00;;;;;;;22.42;42.85;98178.78;8285038;28;20256;-73
2022/10/25 13:58:45;;;;;;;0.00;0.00;;;;;;;22.38;43.24;98185.31;8284758;28;20575;-74
2022/10/25 14:03:21;;;;;;;0.00;0.00;;;;;;;22.55;42.81;98189.06;8283113;28;20248;-74
2022/10/25 14:07:49;;;;;;;0.00;0.00;;;;;;;21.84;43.68;98197.09;8263755;28;20225;-76
2022/10/25 14:11:54;;;;;;;0.00;0.00;;;;;;;22.15;43.08;98200.50;8284503;28;20576;-75
2022/10/25 14:16:00;;;;;;;0.00;0.00;;;;;;;22.25;43.12;98188.19;8284270;28;20533;-76
2022/10/25 14:20:07;;;;;;;0.00;0.00;;;;;;;22.20;43.08;98189.53;8284448;28;20240;-76
2022/10/25 14:24:15;;;;;;;0.00;0.00;;;;;;;21.48;44.64;98197.50;8284178;28;20524;-76
2022/10/25 14:28:22;;;;;;;0.00;0.00;;;;;;;21.38;44.49;98187.84;8284148;28;20265;-76
2022/10/25 14:32:25;;;;;;;0.00;0.00;;;;;;;21.76;44.43;98184.59;8284220;28;20272;-76
2022/10/25 14:36:29;;;;;;;0.00;0.00;;;;;;;21.78;44.46;98182.66;8284923;28;20237;-75
2022/10/25 14:40:33;;;;;;;0.00;0.00;;;;;;;21.85;44.63;98188.22;8284268;28;20230;-76
2022/10/25 14:44:45;;;;;;;0.00;0.00;;;;;;;21.66;44.58;98188.97;8283850;28;20225;-78
2022/10/25 14:48:49;;;;;;;0.00;0.00;;;;;;;21.48;44.65;98186.97;8283031;28;20387;-75
2022/10/25 14:52:52;;;;;;;0.00;0.00;;;;;;;21.16;45.25;98189.66;8283139;28;20225;-76
2022/10/25 14:57:02;;;;;;;0.00;0.00;;;;;;;20.91;45.93;98187.44;8282701;28;20320;-75
2022/10/25 15:01:05;;;;;;;0.00;0.00;;;;;;;20.79;46.66;98178.72;8282871;28;20245;-75
2022/10/25 15:05:15;;;;;;;0.00;0.00;;;;;;;20.55;47.03;98173.69;8282693;28;20251;-75
2022/10/25 15:09:20;;;;;;;0.00;0.00;;;;;;;20.43;47.21;98175.53;8282692;28;20225;-75
2022/10/25 15:13:46;;;;;;;0.00;0.00;;;;;;;20.30;48.06;98168.63;8282701;28;20232;-76
2022/10/25 15:17:50;;;;;;;0.00;0.00;;;;;;;20.15;48.64;98169.03;8281317;28;20244;-77
2022/10/25 15:22:06;;;;;;;0.00;0.00;;;;;;;19.98;49.79;98170.38;8282416;28;20252;-76
2022/10/25 15:26:27;;;;;;;0.00;0.00;;;;;;;19.82;49.69;98168.97;8282807;28;20528;-76
2022/10/25 15:30:36;;;;;;;0.00;0.00;;;;;;;19.70;50.22;98167.28;8280563;28;20229;-76
2022/10/25 15:34:39;;;;;;;0.00;0.00;;;;;;;19.57;50.75;98169.19;8282530;28;20462;-76
2022/10/25 15:38:42;;;;;;;0.00;0.00;;;;;;;19.40;51.70;98162.63;8282245;28;20438;-75
2022/10/25 15:43:04;;;;;;;0.00;0.00;;;;;;;19.36;51.73;98169.06;8281885;28;20303;-76
2022/10/25 15:47:26;;;;;;;0.00;0.00;;;;;;;19.28;52.12;98167.84;8281929;28;20539;-75
2022/10/25 15:51:30;;;;;;;0.00;0.00;;;;;;;19.11;53.68;98161.31;8281373;28;20245;-76
2022/10/25 15:55:32;;;;;;;0.00;0.00;;;;;;;18.99;54.30;98167.47;8281103;28;20240;-76
2022/10/25 15:59:35;;;;;;;0.00;0.00;;;;;;;18.86;54.03;98157.03;8281816;28;20229;-77
2022/10/25 16:03:41;;;;;;;0.00;0.00;;;;;;;18.76;54.28;98164.75;8281413;28;20250;-75
2022/10/25 16:07:44;;;;;;;0.00;0.00;;;;;;;18.67;54.29;98167.22;8281347;28;20459;-75
2022/10/25 16:11:50;;;;;;;0.00;0.00;;;;;;;18.53;54.73;98163.84;8281013;28;20236;-76
2022/10/25 16:15:53;;;;;;;0.00;0.00;;;;;;;18.45;55.20;98167.97;8281099;28;20587;-75
2022/10/25 16:19:57;;;;;;;0.00;0.00;;;;;;;18.32;55.44;98165.41;8280875;28;20234;-74
2022/10/25 16:23:59;;;;;;;0.00;0.00;;;;;;;18.31;55.52;98174.22;8279781;28;20464;-79
2022/10/25 16:28:02;;;;;;;0.00;0.00;;;;;;;18.27;55.83;98180.63;8282551;28;20239;-81
2022/10/25 16:32:05;;;;;;;0.00;0.00;;;;;;;18.15;56.51;98182.38;8286956;28;20238;-76
2022/10/25 16:36:17;;;;;;;0.00;0.00;;;;;;;18.09;56.28;98169.72;8286690;28;20243;-75
2022/10/25 16:40:28;;;;;;;0.00;0.00;;;;;;;17.97;56.75;98174.00;8286694;28;20388;-76
2022/10/25 16:44:34;;;;;;;0.00;0.00;;;;;;;17.86;57.24;98171.31;8286703;28;20545;-76
2022/10/25 16:48:37;;;;;;;0.00;0.00;;;;;;;17.83;57.12;98168.91;8286611;28;20282;-76
2022/10/25 16:52:42;;;;;;;0.00;0.00;;;;;;;17.72;57.71;98170.47;8286594;28;20240;-76
2022/10/25 16:56:44;;;;;;;0.00;0.00;;;;;;;18.26;65.56;98178.94;8286354;28;20541;-75
2022/10/25 17:00:48;;;;;;;0.00;0.00;;;;;;;18.45;65.05;98176.69;8285777;28;20427;-76
2022/10/25 17:04:52;;;;;;;0.00;0.00;;;;;;;18.03;57.61;98178.84;8286164;28;20267;-74
2022/10/25 17:08:56;;;;;;;0.00;0.00;;;;;;;17.79;57.67;98182.22;8285136;28;20333;-74
2022/10/25 17:13:02;;;;;;;0.00;0.00;;;;;;;17.57;58.26;98182.91;8285596;28;20426;-74
2022/10/25 17:17:05;;;;;;;0.00;0.00;;;;;;;17.34;58.77;98183.63;8284959;28;20295;-74
2022/10/25 17:21:08;;;;;;;0.00;0.00;;;;;;;17.37;58.28;98184.25;8284470;28;20391;-74
2022/10/25 17:25:13;;;;;;;0.00;0.00;;;;;;;17.30;59.09;98188.22;8283770;28;20234;-74
2022/10/25 17:29:16;;;;;;;0.00;0.00;;;;;;;17.30;58.68;98183.00;8284864;28;20240;-74
2022/10/25 17:33:19;;;;;;;0.00;0.00;;;;;;;17.15;59.23;98182.28;8285203;28;20226;-74
2022/10/25 17:37:22;;;;;;;0.00;0.00;;;;;;;17.05;59.10;98175.16;8284411;28;20328;-74
2022/10/25 17:41:26;;;;;;;0.00;0.00;;;;;;;16.98;59.02;98178.19;8283958;28;20229;-74
2022/10/25 17:45:30;;;;;;;0.00;0.00;;;;;;;16.90;59.54;98175.22;8284552;28;20242;-74
2022/10/25 17:49:33;;;;;;;0.00;0.00;;;;;;;16.83;59.62;98181.81;8284844;28;20447;-74
2022/10/25 17:53:36;;;;;;;0.00;0.00;;;;;;;16.76;59.43;98173.50;8284628;28;20229;-74
2022/10/25 17:57:40;;;;;;;0.00;0.00;;;;;;;16.75;59.70;98182.31;8284267;28;20472;-74
2022/10/25 18:01:43;;;;;;;0.00;0.00;;;;;;;16.71;59.45;98185.19;8284250;28;20433;-75
2022/10/25 18:05:47;;;;;;;0.00;0.00;;;;;;;16.67;59.27;98181.13;8284037;28;20234;-74
2022/10/25 18:09:49;;;;;;;0.00;0.00;;;;;;;16.60;59.52;98178.91;8283990;28;20230;-74
2022/10/25 18:13:54;;;;;;;0.00;0.00;;;;;;;16.47;59.25;98177.19;8283591;28;20248;-74
2022/10/25 18:17:57;;;;;;;0.00;0.00;;;;;;;16.33;59.69;98172.84;8283456;28;20305;-75
2022/10/25 18:22:02;;;;;;;0.00;0.00;;;;;;;16.37;59.73;98172.56;8283594;28;20556;-74
2022/10/25 18:26:07;;;;;;;0.00;0.00;;;;;;;16.34;59.65;98177.16;8283373;28;20242;-74
2022/10/25 18:30:12;;;;;;;0.00;0.00;;;;;;;16.26;59.86;98184.63;8283096;28;20518;-74
2022/10/25 18:34:15;;;;;;;0.00;0.00;;;;;;;16.37;59.39;98171.72;8283201;28;20281;-75
2022/10/25 18:38:18;;;;;;;0.00;0.00;;;;;;;16.22;59.52;98160.47;8282430;28;20229;-74
2022/10/25 18:42:21;;;;;;;0.00;0.00;;;;;;;16.20;59.72;98155.38;8282461;28;20237;-73
2022/10/25 18:46:28;;;;;;;0.00;0.00;;;;;;;16.05;59.58;98161.56;8282630;28;20234;-74
2022/10/25 18:50:30;;;;;;;0.00;0.00;;;;;;;16.05;59.37;98158.09;8282184;28;20230;-74
2022/10/25 18:54:33;;;;;;;0.00;0.00;;;;;;;16.02;59.79;98156.53;8282056;28;20605;-74
2022/10/25 18:58:36;;;;;;;0.03;0.03;;;;;;;16.07;59.50;98157.09;8282343;28;20567;-73
2022/10/25 19:02:40;;;;;;;0.00;0.00;;;;;;;16.05;59.30;98158.97;8281804;28;20241;-74
2022/10/25 19:06:44;;;;;;;0.00;0.00;;;;;;;15.87;59.60;98158.34;8282275;28;20244;-74
2022/10/25 19:10:48;;;;;;;0.00;0.00;;;;;;;15.90;59.65;98154.72;8281617;28;20244;-74
2022/10/25 19:14:51;;;;;;;0.00;0.00;;;;;;;15.71;60.24;98137.56;8282339;28;20520;-74
2022/10/25 19:18:56;;;;;;;0.00;0.00;;;;;;;15.73;60.08;98140.94;8281659;28;20524;-74
2022/10/25 19:22:59;;;;;;;0.00;0.00;;;;;;;15.70;60.07;98137.63;8281839;28;20256;-74